createdAt,value
2023-04-11T00:02:46.220Z,3.48
2023-04-11T00:07:47.921Z,3.43
2023-04-11T00:12:49.392Z,3.37
2023-04-11T00:17:50.900Z,3.27
2023-04-11T00:22:53.459Z,3.16
2023-04-11T00:27:55.037Z,3.05
2023-04-11T00:32:56.523Z,2.96
2023-04-11T00:37:58.184Z,2.89
2023-04-11T00:42:59.958Z,2.88
2023-04-11T00:48:01.985Z,2.84
2023-04-11T00:53:03.707Z,2.77
2023-04-11T00:58:06.851Z,2.67
2023-04-11T01:03:08.725Z,2.59
2023-04-11T01:08:11.236Z,2.56
2023-04-11T01:13:12.768Z,2.57
2023-04-11T01:18:14.951Z,2.55
2023-04-11T01:23:23.897Z,2.49
2023-04-11T01:28:25.675Z,2.40
2023-04-11T01:33:27.352Z,2.37
2023-04-11T01:38:29.038Z,2.36
2023-04-11T01:43:30.594Z,2.38
2023-04-11T01:48:33.774Z,2.44
2023-04-11T01:53:35.270Z,2.53
2023-04-11T01:58:36.756Z,2.68
2023-04-11T02:03:39.012Z,2.80
2023-04-11T02:08:40.606Z,2.84
2023-04-11T02:13:42.093Z,2.85
2023-04-11T02:18:45.075Z,2.83
2023-04-11T02:23:46.549Z,2.81
2023-04-11T02:28:48.023Z,2.77
2023-04-11T02:33:49.613Z,2.71
2023-04-11T02:38:51.075Z,2.69
2023-04-11T02:43:53.506Z,2.66
2023-04-11T02:48:55.548Z,2.61
2023-04-11T02:53:57.234Z,2.66
2023-04-11T02:58:58.986Z,2.87
2023-04-11T03:04:00.924Z,3.06
2023-04-11T03:09:03.429Z,3.22
2023-04-11T03:14:05.037Z,3.37
2023-04-11T03:19:06.715Z,3.51
2023-04-11T03:24:08.386Z,3.63
2023-04-11T03:29:09.860Z,3.68
2023-04-11T03:34:11.347Z,3.71
2023-04-11T03:39:12.799Z,3.78
2023-04-11T03:44:14.800Z,3.87
2023-04-11T03:49:16.250Z,3.95
2023-04-11T03:54:17.729Z,4.04
2023-04-11T03:59:19.399Z,4.10
2023-04-11T04:04:21.036Z,4.11
2023-04-11T04:09:23.626Z,4.15
2023-04-11T04:14:25.139Z,4.27
2023-04-11T04:19:26.628Z,4.40
2023-04-11T04:24:28.991Z,4.52
2023-04-11T04:29:37.428Z,4.63
2023-04-11T04:34:46.380Z,4.78
2023-04-11T04:39:50.523Z,4.94
2023-04-11T04:44:53.625Z,5.04
2023-04-11T04:49:56.006Z,5.14
2023-04-11T04:54:57.924Z,5.27
2023-04-11T04:59:59.459Z,5.38
2023-04-11T05:05:03.493Z,5.47
2023-04-11T05:10:05.743Z,5.61
2023-04-11T05:15:10.978Z,5.78
2023-04-11T05:20:13.021Z,5.94
2023-04-11T05:25:14.515Z,6.08
2023-04-11T05:30:16.258Z,6.27
2023-04-11T05:35:17.686Z,6.51
2023-04-11T05:40:19.202Z,6.75
2023-04-11T05:45:20.671Z,6.96
2023-04-11T05:50:22.353Z,7.22
2023-04-11T05:55:23.814Z,7.52
2023-04-11T06:00:27.930Z,7.79
2023-04-11T06:05:30.852Z,8.05
2023-04-11T06:10:32.523Z,8.34
2023-04-11T06:15:34.175Z,8.63
2023-04-11T06:20:35.768Z,8.89
2023-04-11T06:25:38.073Z,9.11
2023-04-11T06:30:41.785Z,9.35
2023-04-11T06:35:44.758Z,9.60
2023-04-11T06:40:49.019Z,9.87
2023-04-11T06:45:52.265Z,10.13
2023-04-11T06:50:55.138Z,10.37
2023-04-11T06:55:59.882Z,10.65
2023-04-11T07:01:02.801Z,10.94
2023-04-11T07:06:07.550Z,11.22
2023-04-11T07:11:10.643Z,11.49
2023-04-11T07:16:13.494Z,11.77
2023-04-11T07:21:16.352Z,12.04
2023-04-11T07:26:19.256Z,12.29
2023-04-11T07:31:23.047Z,12.53
2023-04-11T07:36:29.055Z,12.74
2023-04-11T07:41:31.902Z,12.98
2023-04-11T07:46:34.791Z,13.16
2023-04-11T07:51:37.857Z,13.32
2023-04-11T07:56:41.061Z,13.49
2023-04-11T08:01:43.900Z,13.73
2023-04-11T08:06:46.854Z,14.03
2023-04-11T08:11:49.784Z,14.25
2023-04-11T08:16:53.274Z,14.41
2023-04-11T08:21:56.582Z,14.57
2023-04-11T08:26:59.837Z,14.76
2023-04-11T08:32:03.040Z,14.97
2023-04-11T08:37:05.846Z,15.16
2023-04-11T08:42:21.348Z,15.39
2023-04-11T08:47:24.693Z,15.59
2023-04-11T08:52:28.936Z,15.78
2023-04-11T08:57:31.928Z,15.89
2023-04-11T09:02:35.221Z,16.03
2023-04-11T09:07:50.437Z,16.17
2023-04-11T09:12:54.427Z,16.25
2023-04-11T09:18:00.596Z,16.33
2023-04-11T09:23:03.951Z,16.49
2023-04-11T09:28:10.920Z,16.61
2023-04-11T09:33:24.951Z,16.71
2023-04-11T09:38:29.334Z,16.78
2023-04-11T09:43:53.826Z,16.92
2023-04-11T09:48:57.581Z,17.17
2023-04-11T09:54:02.306Z,17.35
2023-04-11T09:59:05.673Z,17.61
2023-04-11T10:04:11.145Z,17.85
2023-04-11T10:09:16.117Z,17.97
2023-04-11T10:14:38.949Z,18.31
2023-04-11T10:19:43.816Z,18.44
2023-04-11T10:25:19.032Z,18.52
2023-04-11T10:30:40.303Z,18.42
2023-04-11T10:36:12.437Z,18.27
2023-04-11T10:41:18.992Z,18.10
2023-04-11T10:46:23.731Z,18.06
2023-04-11T10:51:28.211Z,18.21
2023-04-11T10:56:40.364Z,18.33
2023-04-11T11:01:57.189Z,18.46
2023-04-11T11:07:04.513Z,18.66
2023-04-11T11:12:15.566Z,18.89
2023-04-11T11:17:18.485Z,18.92
2023-04-11T11:22:28.711Z,18.82
2023-04-11T11:27:31.745Z,18.76
2023-04-11T11:32:34.769Z,18.76
2023-04-11T11:37:38.029Z,18.71
2023-04-11T11:42:41.724Z,18.84
2023-04-11T11:47:47.175Z,18.88
2023-04-11T11:52:51.452Z,18.71
2023-04-11T11:57:54.399Z,18.59
2023-04-11T12:02:59.761Z,18.61
2023-04-11T12:08:05.362Z,18.74
2023-04-11T12:13:36.382Z,18.81
2023-04-11T12:18:42.345Z,18.74
2023-04-11T12:23:45.772Z,18.69
2023-04-11T12:28:50.324Z,18.81
2023-04-11T12:33:53.325Z,19.07
2023-04-11T12:38:56.958Z,19.22
2023-04-11T12:44:02.586Z,19.40
2023-04-11T12:49:06.333Z,19.40
2023-04-11T12:54:09.233Z,19.26
2023-04-11T12:59:12.140Z,19.16
2023-04-11T13:04:15.492Z,19.20
2023-04-11T13:09:18.766Z,19.17
2023-04-11T13:14:21.673Z,19.15
2023-04-11T13:19:24.881Z,19.24
2023-04-11T13:24:27.903Z,19.38
2023-04-11T13:29:30.798Z,19.18
2023-04-11T13:34:34.278Z,18.83
2023-04-11T13:39:37.111Z,18.66
2023-04-11T13:44:40.020Z,18.48
2023-04-11T13:49:42.920Z,18.08
2023-04-11T13:54:46.039Z,17.94
2023-04-11T13:59:48.916Z,17.75
2023-04-11T14:04:52.273Z,17.57
2023-04-11T14:09:54.995Z,17.45
2023-04-11T14:14:57.851Z,17.28
2023-04-11T14:20:01.058Z,17.11
2023-04-11T14:25:06.925Z,16.96
2023-04-11T14:30:12.274Z,16.76
2023-04-11T14:35:15.707Z,16.60
2023-04-11T14:40:18.601Z,16.58
2023-04-11T14:45:21.438Z,16.48
2023-04-11T14:50:25.048Z,16.48
2023-04-11T14:55:28.935Z,16.75
2023-04-11T15:00:37.934Z,16.91
2023-04-11T15:05:51.695Z,17.20
2023-04-11T15:10:54.844Z,17.92
2023-04-11T15:16:04.428Z,18.42
2023-04-11T15:21:07.905Z,18.69
2023-04-11T15:26:11.368Z,18.84
2023-04-11T15:31:25.377Z,18.89
2023-04-11T15:36:29.078Z,18.86
2023-04-11T15:41:32.153Z,18.69
2023-04-11T15:46:34.990Z,18.37
2023-04-11T15:51:38.368Z,17.93
2023-04-11T15:56:41.274Z,17.41
2023-04-11T16:01:46.160Z,17.00
2023-04-11T16:06:49.337Z,16.62
2023-04-11T16:11:52.235Z,16.21
2023-04-11T16:16:55.940Z,15.94
2023-04-11T16:21:58.866Z,15.58
2023-04-11T16:27:02.902Z,15.25
2023-04-11T16:32:06.450Z,14.94
2023-04-11T16:37:09.520Z,14.63
2023-04-11T16:42:12.223Z,14.33
2023-04-11T16:47:15.101Z,14.02
2023-04-11T16:52:18.131Z,13.74
2023-04-11T16:57:20.932Z,13.49
2023-04-11T17:02:23.917Z,13.26
2023-04-11T17:07:28.582Z,13.00
2023-04-11T17:12:31.941Z,12.76
2023-04-11T17:17:34.907Z,12.52
2023-04-11T17:22:41.462Z,12.29
2023-04-11T17:27:44.392Z,12.08
2023-04-11T17:32:48.804Z,11.87
2023-04-11T17:37:52.364Z,11.67
2023-04-11T17:42:57.708Z,11.51
2023-04-11T17:48:01.453Z,11.33
2023-04-11T17:53:05.069Z,11.16
2023-04-11T17:58:08.071Z,10.99
2023-04-11T18:03:11.651Z,10.84
2023-04-11T18:08:14.854Z,10.69
2023-04-11T18:13:17.696Z,10.56
2023-04-11T18:18:20.597Z,10.44
2023-04-11T18:23:23.604Z,10.31
2023-04-11T18:28:26.405Z,10.21
2023-04-11T18:33:29.466Z,10.14
2023-04-11T18:38:32.417Z,10.06
2023-04-11T18:43:35.651Z,10.00
2023-04-11T18:48:38.595Z,9.95
2023-04-11T18:53:41.945Z,9.87
2023-04-11T18:58:46.657Z,9.80
2023-04-11T19:03:54.748Z,9.73
2023-04-11T19:08:58.028Z,9.65
2023-04-11T19:14:01.555Z,9.59
2023-04-11T19:19:04.454Z,9.56
2023-04-11T19:24:08.602Z,9.53
2023-04-11T19:29:11.788Z,9.52
2023-04-11T19:34:15.512Z,9.53
2023-04-11T19:39:18.928Z,9.57
2023-04-11T19:44:22.461Z,9.64
2023-04-11T19:49:25.359Z,9.78
2023-04-11T19:54:28.246Z,9.86
2023-04-11T19:59:31.061Z,9.88
2023-04-11T20:04:33.968Z,9.84
2023-04-11T20:09:36.859Z,9.83
2023-04-11T20:14:39.869Z,9.88
2023-04-11T20:19:44.514Z,9.83
2023-04-11T20:24:48.220Z,9.74
2023-04-11T20:29:50.973Z,9.63
2023-04-11T20:34:53.973Z,9.54
2023-04-11T20:39:57.734Z,9.43
2023-04-11T20:45:10.137Z,9.37
2023-04-11T20:50:14.625Z,9.31
2023-04-11T20:55:18.251Z,9.19
2023-04-11T21:00:21.152Z,9.02
2023-04-11T21:05:25.225Z,8.93
2023-04-11T21:10:28.293Z,8.92
2023-04-11T21:15:31.341Z,8.90
2023-04-11T21:20:34.712Z,8.83
2023-04-11T21:25:38.140Z,8.77
2023-04-11T21:30:42.670Z,8.76
2023-04-11T21:35:45.697Z,8.81
2023-04-11T21:40:48.683Z,8.87
2023-04-11T21:45:51.486Z,8.82
2023-04-11T21:50:54.805Z,8.73
2023-04-11T21:55:57.710Z,8.65
2023-04-11T22:01:01.891Z,8.70
2023-04-11T22:06:05.226Z,8.74
2023-04-11T22:11:14.385Z,8.73
2023-04-11T22:16:17.218Z,8.62
2023-04-11T22:21:20.525Z,8.49
2023-04-11T22:26:34.693Z,8.33
2023-04-11T22:31:39.011Z,8.09
2023-04-11T22:36:42.134Z,7.86
2023-04-11T22:41:47.895Z,7.63
2023-04-11T22:47:06.225Z,7.43
2023-04-11T22:52:14.180Z,7.16
2023-04-11T22:57:16.987Z,6.94
2023-04-11T23:02:19.971Z,6.77
2023-04-11T23:07:25.412Z,6.59
2023-04-11T23:12:31.985Z,6.42
2023-04-11T23:17:34.958Z,6.33
2023-04-11T23:22:37.856Z,6.24
2023-04-11T23:27:43.621Z,6.19
2023-04-11T23:32:47.268Z,6.05
2023-04-11T23:37:51.061Z,6.01
2023-04-11T23:42:53.968Z,6.08
2023-04-11T23:47:57.538Z,6.21
2023-04-11T23:53:00.694Z,6.31
2023-04-11T23:58:04.323Z,6.28
